sensor_id;sensor_type;location;lat;lon;timestamp;temperature;humidity
22940;DHT22;11636;52.086;5.090;2023-12-22T00:00:16;6.40;99.90
22940;DHT22;11636;52.086;5.090;2023-12-22T00:02:49;6.50;99.90
22940;DHT22;11636;52.086;5.090;2023-12-22T00:05:23;6.50;99.90
22940;DHT22;11636;52.086;5.090;2023-12-22T00:07:49;6.60;99.90
22940;DHT22;11636;52.086;5.090;2023-12-22T00:10:23;6.60;99.90
22940;DHT22;11636;52.086;5.090;2023-12-22T00:12:49;6.70;99.90
22940;DHT22;11636;52.086;5.090;2023-12-22T00:15:16;6.70;99.90
22940;DHT22;11636;52.086;5.090;2023-12-22T00:17:50;6.80;99.90
22940;DHT22;11636;52.086;5.090;2023-12-22T00:20:17;6.80;99.90
22940;DHT22;11636;52.086;5.090;2023-12-22T00:22:51;6.80;99.90
22940;DHT22;11636;52.086;5.090;2023-12-22T00:25:18;6.80;99.90
22940;DHT22;11636;52.086;5.090;2023-12-22T00:27:51;6.70;99.90
22940;DHT22;11636;52.086;5.090;2023-12-22T00:30:18;6.70;99.90
22940;DHT22;11636;52.086;5.090;2023-12-22T00:32:52;6.70;99.90
22940;DHT22;11636;52.086;5.090;2023-12-22T00:35:18;6.70;99.90
22940;DHT22;11636;52.086;5.090;2023-12-22T00:37:45;6.60;99.90
22940;DHT22;11636;52.086;5.090;2023-12-22T00:40:19;6.60;99.90
22940;DHT22;11636;52.086;5.090;2023-12-22T00:42:52;6.60;99.90
22940;DHT22;11636;52.086;5.090;2023-12-22T00:45:18;6.30;99.90
22940;DHT22;11636;52.086;5.090;2023-12-22T00:47:52;6.00;99.90
22940;DHT22;11636;52.086;5.090;2023-12-22T00:50:19;5.80;99.90
22940;DHT22;11636;52.086;5.090;2023-12-22T00:52:46;5.70;99.90
22940;DHT22;11636;52.086;5.090;2023-12-22T00:55:20;5.50;99.90
22940;DHT22;11636;52.086;5.090;2023-12-22T00:57:47;5.50;99.90
22940;DHT22;11636;52.086;5.090;2023-12-22T01:00:20;5.50;99.90
22940;DHT22;11636;52.086;5.090;2023-12-22T01:02:53;5.50;99.90
22940;DHT22;11636;52.086;5.090;2023-12-22T01:05:26;5.60;99.90
22940;DHT22;11636;52.086;5.090;2023-12-22T01:07:53;5.60;99.90
22940;DHT22;11636;52.086;5.090;2023-12-22T01:10:26;5.60;99.90
22940;DHT22;11636;52.086;5.090;2023-12-22T01:12:53;5.70;99.90
22940;DHT22;11636;52.086;5.090;2023-12-22T01:15:26;5.70;99.90
22940;DHT22;11636;52.086;5.090;2023-12-22T01:17:52;5.70;99.90
22940;DHT22;11636;52.086;5.090;2023-12-22T01:20:20;5.70;99.90
22940;DHT22;11636;52.086;5.090;2023-12-22T01:22:53;5.70;99.90
22940;DHT22;11636;52.086;5.090;2023-12-22T01:25:19;5.70;99.90
22940;DHT22;11636;52.086;5.090;2023-12-22T01:27:53;5.70;99.90
22940;DHT22;11636;52.086;5.090;2023-12-22T01:30:20;5.70;99.90
22940;DHT22;11636;52.086;5.090;2023-12-22T01:32:53;5.80;99.90
22940;DHT22;11636;52.086;5.090;2023-12-22T01:35:26;5.80;99.90
22940;DHT22;11636;52.086;5.090;2023-12-22T01:37:53;5.80;99.90
22940;DHT22;11636;52.086;5.090;2023-12-22T01:40:21;5.80;99.90
22940;DHT22;11636;52.086;5.090;2023-12-22T01:42:54;5.80;99.90
22940;DHT22;11636;52.086;5.090;2023-12-22T01:45:21;5.90;99.90
22940;DHT22;11636;52.086;5.090;2023-12-22T01:47:55;5.90;99.90
22940;DHT22;11636;52.086;5.090;2023-12-22T01:50:22;5.90;99.90
22940;DHT22;11636;52.086;5.090;2023-12-22T01:52:49;5.90;99.90
22940;DHT22;11636;52.086;5.090;2023-12-22T01:55:23;5.90;99.90
22940;DHT22;11636;52.086;5.090;2023-12-22T01:57:50;5.80;99.90
22940;DHT22;11636;52.086;5.090;2023-12-22T02:00:24;5.80;99.90
22940;DHT22;11636;52.086;5.090;2023-12-22T02:02:51;5.70;99.90
22940;DHT22;11636;52.086;5.090;2023-12-22T02:05:25;5.60;99.90
22940;DHT22;11636;52.086;5.090;2023-12-22T02:07:52;5.60;99.90
22940;DHT22;11636;52.086;5.090;2023-12-22T02:10:19;5.60;99.90
22940;DHT22;11636;52.086;5.090;2023-12-22T02:12:52;5.70;99.90
22940;DHT22;11636;52.086;5.090;2023-12-22T02:15:19;5.80;99.90
22940;DHT22;11636;52.086;5.090;2023-12-22T02:18:06;5.80;99.90
22940;DHT22;11636;52.086;5.090;2023-12-22T02:20:34;5.90;99.90
22940;DHT22;11636;52.086;5.090;2023-12-22T02:23:08;6.10;99.90
22940;DHT22;11636;52.086;5.090;2023-12-22T02:25:35;6.30;99.90
22940;DHT22;11636;52.086;5.090;2023-12-22T02:28:05;6.40;99.90
22940;DHT22;11636;52.086;5.090;2023-12-22T02:31:09;6.50;99.90
22940;DHT22;11636;52.086;5.090;2023-12-22T02:33:46;6.60;99.90
22940;DHT22;11636;52.086;5.090;2023-12-22T02:36:15;6.80;99.90
22940;DHT22;11636;52.086;5.090;2023-12-22T02:38:50;6.80;99.90
22940;DHT22;11636;52.086;5.090;2023-12-22T02:41:18;6.90;99.90
22940;DHT22;11636;52.086;5.090;2023-12-22T02:43:52;6.80;99.90
22940;DHT22;11636;52.086;5.090;2023-12-22T02:46:26;6.90;99.90
22940;DHT22;11636;52.086;5.090;2023-12-22T02:48:53;7.00;99.90
22940;DHT22;11636;52.086;5.090;2023-12-22T02:51:26;7.00;99.90
22940;DHT22;11636;52.086;5.090;2023-12-22T02:53:53;7.10;99.90
22940;DHT22;11636;52.086;5.090;2023-12-22T02:56:26;7.10;99.90
22940;DHT22;11636;52.086;5.090;2023-12-22T02:58:53;7.10;99.90
22940;DHT22;11636;52.086;5.090;2023-12-22T03:01:26;7.10;99.90
22940;DHT22;11636;52.086;5.090;2023-12-22T03:03:53;7.10;99.90
22940;DHT22;11636;52.086;5.090;2023-12-22T03:06:26;7.00;99.90
22940;DHT22;11636;52.086;5.090;2023-12-22T03:08:53;7.00;99.90
22940;DHT22;11636;52.086;5.090;2023-12-22T03:11:19;7.00;99.90
22940;DHT22;11636;52.086;5.090;2023-12-22T03:13:53;7.10;99.90
22940;DHT22;11636;52.086;5.090;2023-12-22T03:16:20;7.20;99.90
22940;DHT22;11636;52.086;5.090;2023-12-22T03:18:53;7.20;99.90
22940;DHT22;11636;52.086;5.090;2023-12-22T03:21:20;7.30;99.90
22940;DHT22;11636;52.086;5.090;2023-12-22T03:23:53;7.30;99.90
22940;DHT22;11636;52.086;5.090;2023-12-22T03:26:20;7.40;99.90
22940;DHT22;11636;52.086;5.090;2023-12-22T03:28:46;7.50;99.90
22940;DHT22;11636;52.086;5.090;2023-12-22T03:31:20;7.50;99.90
22940;DHT22;11636;52.086;5.090;2023-12-22T03:33:47;7.60;99.90
22940;DHT22;11636;52.086;5.090;2023-12-22T03:36:20;7.60;99.90
22940;DHT22;11636;52.086;5.090;2023-12-22T03:38:53;7.70;99.90
22940;DHT22;11636;52.086;5.090;2023-12-22T03:41:26;7.70;99.90
22940;DHT22;11636;52.086;5.090;2023-12-22T03:43:53;7.80;99.90
22940;DHT22;11636;52.086;5.090;2023-12-22T03:46:20;7.90;99.90
22940;DHT22;11636;52.086;5.090;2023-12-22T03:48:53;7.90;99.90
22940;DHT22;11636;52.086;5.090;2023-12-22T03:51:26;8.00;99.90
22940;DHT22;11636;52.086;5.090;2023-12-22T03:53:59;8.00;99.90
22940;DHT22;11636;52.086;5.090;2023-12-22T03:56:33;8.00;99.90
22940;DHT22;11636;52.086;5.090;2023-12-22T03:59:06;8.00;99.90
22940;DHT22;11636;52.086;5.090;2023-12-22T04:01:33;8.00;99.90
22940;DHT22;11636;52.086;5.090;2023-12-22T04:04:06;8.10;99.90
22940;DHT22;11636;52.086;5.090;2023-12-22T04:06:33;8.10;99.90
22940;DHT22;11636;52.086;5.090;2023-12-22T04:09:10;8.10;99.90
22940;DHT22;11636;52.086;5.090;2023-12-22T04:11:43;8.10;99.90
22940;DHT22;11636;52.086;5.090;2023-12-22T04:14:10;8.10;99.90
22940;DHT22;11636;52.086;5.090;2023-12-22T04:16:37;8.20;99.90
22940;DHT22;11636;52.086;5.090;2023-12-22T04:19:11;8.10;99.90
22940;DHT22;11636;52.086;5.090;2023-12-22T04:21:51;8.10;99.90
22940;DHT22;11636;52.086;5.090;2023-12-22T04:24:24;8.10;99.90
22940;DHT22;11636;52.086;5.090;2023-12-22T04:26:57;8.00;99.90
22940;DHT22;11636;52.086;5.090;2023-12-22T04:29:24;8.10;99.90
22940;DHT22;11636;52.086;5.090;2023-12-22T04:31:51;8.20;99.90
22940;DHT22;11636;52.086;5.090;2023-12-22T04:34:24;8.20;99.90
22940;DHT22;11636;52.086;5.090;2023-12-22T04:36:51;8.20;99.90
22940;DHT22;11636;52.086;5.090;2023-12-22T04:39:24;8.20;99.90
22940;DHT22;11636;52.086;5.090;2023-12-22T04:41:52;8.20;99.90
22940;DHT22;11636;52.086;5.090;2023-12-22T04:44:26;8.20;99.90
22940;DHT22;11636;52.086;5.090;2023-12-22T04:46:59;8.20;99.90
22940;DHT22;11636;52.086;5.090;2023-12-22T04:49:26;8.30;99.90
22940;DHT22;11636;52.086;5.090;2023-12-22T04:51:59;8.30;99.90
22940;DHT22;11636;52.086;5.090;2023-12-22T04:54:28;8.20;99.90
22940;DHT22;11636;52.086;5.090;2023-12-22T04:57:01;8.30;99.90
22940;DHT22;11636;52.086;5.090;2023-12-22T04:59:34;8.30;99.90
22940;DHT22;11636;52.086;5.090;2023-12-22T05:02:01;8.30;99.90
22940;DHT22;11636;52.086;5.090;2023-12-22T05:04:41;8.30;99.90
22940;DHT22;11636;52.086;5.090;2023-12-22T05:07:09;8.40;99.90
22940;DHT22;11636;52.086;5.090;2023-12-22T05:09:37;8.40;99.90
22940;DHT22;11636;52.086;5.090;2023-12-22T05:12:10;8.40;99.90
22940;DHT22;11636;52.086;5.090;2023-12-22T05:14:44;8.40;99.90
22940;DHT22;11636;52.086;5.090;2023-12-22T05:17:11;8.50;99.90
22940;DHT22;11636;52.086;5.090;2023-12-22T05:19:44;8.40;99.90
22940;DHT22;11636;52.086;5.090;2023-12-22T05:22:11;8.50;99.90
22940;DHT22;11636;52.086;5.090;2023-12-22T05:24:38;8.50;99.90
22940;DHT22;11636;52.086;5.090;2023-12-22T05:27:11;8.50;99.90
22940;DHT22;11636;52.086;5.090;2023-12-22T05:29:38;8.50;99.90
22940;DHT22;11636;52.086;5.090;2023-12-22T05:32:05;8.50;99.90
22940;DHT22;11636;52.086;5.090;2023-12-22T05:34:38;8.60;99.90
22940;DHT22;11636;52.086;5.090;2023-12-22T05:37:11;8.60;99.90
22940;DHT22;11636;52.086;5.090;2023-12-22T05:39:38;8.60;99.90
22940;DHT22;11636;52.086;5.090;2023-12-22T05:42:11;8.60;99.90
22940;DHT22;11636;52.086;5.090;2023-12-22T05:44:38;8.50;99.90
22940;DHT22;11636;52.086;5.090;2023-12-22T05:47:06;8.40;99.90
22940;DHT22;11636;52.086;5.090;2023-12-22T05:49:40;8.40;99.90
22940;DHT22;11636;52.086;5.090;2023-12-22T05:52:13;8.40;99.90
22940;DHT22;11636;52.086;5.090;2023-12-22T05:54:40;8.50;99.90
22940;DHT22;11636;52.086;5.090;2023-12-22T05:57:07;8.50;99.90
22940;DHT22;11636;52.086;5.090;2023-12-22T05:59:40;8.60;99.90
22940;DHT22;11636;52.086;5.090;2023-12-22T06:02:13;8.70;99.90
22940;DHT22;11636;52.086;5.090;2023-12-22T06:04:40;8.80;99.90
22940;DHT22;11636;52.086;5.090;2023-12-22T06:07:07;8.70;99.90
22940;DHT22;11636;52.086;5.090;2023-12-22T06:09:40;8.60;99.90
22940;DHT22;11636;52.086;5.090;2023-12-22T06:12:07;8.50;99.90
22940;DHT22;11636;52.086;5.090;2023-12-22T06:14:40;8.50;99.90
22940;DHT22;11636;52.086;5.090;2023-12-22T06:17:07;8.50;99.90
22940;DHT22;11636;52.086;5.090;2023-12-22T06:19:40;8.60;99.90
22940;DHT22;11636;52.086;5.090;2023-12-22T06:22:07;8.60;99.90
22940;DHT22;11636;52.086;5.090;2023-12-22T06:24:41;8.70;99.90
22940;DHT22;11636;52.086;5.090;2023-12-22T06:27:08;8.70;99.90
22940;DHT22;11636;52.086;5.090;2023-12-22T06:29:41;8.70;99.90
22940;DHT22;11636;52.086;5.090;2023-12-22T06:32:08;8.80;99.90
22940;DHT22;11636;52.086;5.090;2023-12-22T06:34:35;8.80;99.90
22940;DHT22;11636;52.086;5.090;2023-12-22T06:37:08;8.80;99.90
22940;DHT22;11636;52.086;5.090;2023-12-22T06:39:37;8.90;99.90
22940;DHT22;11636;52.086;5.090;2023-12-22T06:42:11;8.90;99.90
22940;DHT22;11636;52.086;5.090;2023-12-22T06:44:41;8.90;99.90
22940;DHT22;11636;52.086;5.090;2023-12-22T06:47:15;8.90;99.90
22940;DHT22;11636;52.086;5.090;2023-12-22T06:49:48;8.90;99.90
22940;DHT22;11636;52.086;5.090;2023-12-22T06:52:15;8.90;99.90
22940;DHT22;11636;52.086;5.090;2023-12-22T06:54:42;9.00;99.90
22940;DHT22;11636;52.086;5.090;2023-12-22T06:57:16;9.00;99.90
22940;DHT22;11636;52.086;5.090;2023-12-22T06:59:51;9.00;99.90
22940;DHT22;11636;52.086;5.090;2023-12-22T07:02:25;9.10;99.90
22940;DHT22;11636;52.086;5.090;2023-12-22T07:07:42;9.00;99.90
22940;DHT22;11636;52.086;5.090;2023-12-22T07:10:09;9.10;99.90
22940;DHT22;11636;52.086;5.090;2023-12-22T07:12:45;9.00;99.90
22940;DHT22;11636;52.086;5.090;2023-12-22T07:15:12;9.00;99.90
22940;DHT22;11636;52.086;5.090;2023-12-22T07:17:39;9.00;99.90
22940;DHT22;11636;52.086;5.090;2023-12-22T07:20:13;9.00;99.90
22940;DHT22;11636;52.086;5.090;2023-12-22T07:22:40;9.00;99.90
22940;DHT22;11636;52.086;5.090;2023-12-22T07:25:07;9.00;99.90
22940;DHT22;11636;52.086;5.090;2023-12-22T07:27:41;9.00;99.90
22940;DHT22;11636;52.086;5.090;2023-12-22T07:30:14;8.90;99.90
22940;DHT22;11636;52.086;5.090;2023-12-22T07:32:48;8.60;99.90
22940;DHT22;11636;52.086;5.090;2023-12-22T07:35:25;8.50;99.90
22940;DHT22;11636;52.086;5.090;2023-12-22T07:37:52;8.40;99.90
22940;DHT22;11636;52.086;5.090;2023-12-22T07:40:22;8.40;99.90
22940;DHT22;11636;52.086;5.090;2023-12-22T07:42:56;8.40;99.90
22940;DHT22;11636;52.086;5.090;2023-12-22T07:45:22;8.40;99.90
22940;DHT22;11636;52.086;5.090;2023-12-22T07:47:56;8.40;99.90
22940;DHT22;11636;52.086;5.090;2023-12-22T07:50:25;8.50;99.90
22940;DHT22;11636;52.086;5.090;2023-12-22T07:53:00;8.60;99.90
22940;DHT22;11636;52.086;5.090;2023-12-22T07:55:32;8.60;99.90
22940;DHT22;11636;52.086;5.090;2023-12-22T07:58:05;8.60;99.90
22940;DHT22;11636;52.086;5.090;2023-12-22T08:00:38;8.70;99.90
22940;DHT22;11636;52.086;5.090;2023-12-22T08:03:05;8.70;99.90
22940;DHT22;11636;52.086;5.090;2023-12-22T08:05:38;8.60;99.90
22940;DHT22;11636;52.086;5.090;2023-12-22T08:08:05;8.60;99.90
22940;DHT22;11636;52.086;5.090;2023-12-22T08:10:32;8.50;99.90
22940;DHT22;11636;52.086;5.090;2023-12-22T08:13:05;8.40;99.90
22940;DHT22;11636;52.086;5.090;2023-12-22T08:15:32;8.20;99.90
22940;DHT22;11636;52.086;5.090;2023-12-22T08:18:06;8.10;99.90
22940;DHT22;11636;52.086;5.090;2023-12-22T08:20:33;8.10;99.90
22940;DHT22;11636;52.086;5.090;2023-12-22T08:23:10;8.20;99.90
22940;DHT22;11636;52.086;5.090;2023-12-22T08:25:39;8.20;99.90
22940;DHT22;11636;52.086;5.090;2023-12-22T08:28:15;8.20;99.90
22940;DHT22;11636;52.086;5.090;2023-12-22T08:30:48;8.20;99.90
22940;DHT22;11636;52.086;5.090;2023-12-22T08:33:15;8.20;99.90
22940;DHT22;11636;52.086;5.090;2023-12-22T08:35:48;8.20;99.90
22940;DHT22;11636;52.086;5.090;2023-12-22T08:38:21;8.20;99.90
22940;DHT22;11636;52.086;5.090;2023-12-22T08:40:48;8.30;99.90
22940;DHT22;11636;52.086;5.090;2023-12-22T08:43:26;8.30;99.90
22940;DHT22;11636;52.086;5.090;2023-12-22T08:45:53;8.40;99.90
22940;DHT22;11636;52.086;5.090;2023-12-22T08:48:26;8.50;99.90
22940;DHT22;11636;52.086;5.090;2023-12-22T08:50:53;8.50;99.90
22940;DHT22;11636;52.086;5.090;2023-12-22T08:53:26;8.70;99.90
22940;DHT22;11636;52.086;5.090;2023-12-22T08:55:56;8.70;99.90
22940;DHT22;11636;52.086;5.090;2023-12-22T08:58:30;8.70;99.90
22940;DHT22;11636;52.086;5.090;2023-12-22T09:01:03;8.70;99.90
22940;DHT22;11636;52.086;5.090;2023-12-22T09:03:36;8.60;99.90
22940;DHT22;11636;52.086;5.090;2023-12-22T09:06:10;8.60;99.90
22940;DHT22;11636;52.086;5.090;2023-12-22T09:08:44;8.60;99.90
22940;DHT22;11636;52.086;5.090;2023-12-22T09:11:12;8.70;99.90
22940;DHT22;11636;52.086;5.090;2023-12-22T09:13:40;8.70;99.90
22940;DHT22;11636;52.086;5.090;2023-12-22T09:16:23;8.80;99.90
22940;DHT22;11636;52.086;5.090;2023-12-22T09:18:52;8.90;99.90
22940;DHT22;11636;52.086;5.090;2023-12-22T09:21:26;8.90;99.90
22940;DHT22;11636;52.086;5.090;2023-12-22T09:23:52;8.90;99.90
22940;DHT22;11636;52.086;5.090;2023-12-22T09:26:25;8.90;99.90
22940;DHT22;11636;52.086;5.090;2023-12-22T09:28:55;9.00;99.90
22940;DHT22;11636;52.086;5.090;2023-12-22T09:31:29;9.00;99.90
22940;DHT22;11636;52.086;5.090;2023-12-22T09:33:55;9.00;99.90
22940;DHT22;11636;52.086;5.090;2023-12-22T09:36:23;9.00;99.90
22940;DHT22;11636;52.086;5.090;2023-12-22T09:38:56;9.00;99.90
22940;DHT22;11636;52.086;5.090;2023-12-22T09:41:23;9.10;99.90
22940;DHT22;11636;52.086;5.090;2023-12-22T09:43:58;9.10;99.90
22940;DHT22;11636;52.086;5.090;2023-12-22T09:46:26;9.10;99.90
22940;DHT22;11636;52.086;5.090;2023-12-22T09:49:00;9.20;99.90
22940;DHT22;11636;52.086;5.090;2023-12-22T09:51:34;9.20;99.90
22940;DHT22;11636;52.086;5.090;2023-12-22T09:54:09;9.20;99.90
22940;DHT22;11636;52.086;5.090;2023-12-22T09:56:37;9.30;99.90
22940;DHT22;11636;52.086;5.090;2023-12-22T09:59:17;9.40;99.90
22940;DHT22;11636;52.086;5.090;2023-12-22T10:01:50;9.40;99.90
22940;DHT22;11636;52.086;5.090;2023-12-22T10:04:24;9.50;99.90
22940;DHT22;11636;52.086;5.090;2023-12-22T10:06:58;9.50;99.90
22940;DHT22;11636;52.086;5.090;2023-12-22T10:09:28;9.50;99.90
22940;DHT22;11636;52.086;5.090;2023-12-22T10:12:03;9.60;99.90
22940;DHT22;11636;52.086;5.090;2023-12-22T10:14:31;9.70;99.90
22940;DHT22;11636;52.086;5.090;2023-12-22T10:17:05;9.70;99.90
22940;DHT22;11636;52.086;5.090;2023-12-22T10:19:39;9.60;99.90
22940;DHT22;11636;52.086;5.090;2023-12-22T10:22:13;9.60;99.90
22940;DHT22;11636;52.086;5.090;2023-12-22T10:24:44;9.60;99.90
22940;DHT22;11636;52.086;5.090;2023-12-22T10:27:19;9.50;99.90
22940;DHT22;11636;52.086;5.090;2023-12-22T10:29:55;9.50;99.90
22940;DHT22;11636;52.086;5.090;2023-12-22T10:32:30;9.40;99.90
22940;DHT22;11636;52.086;5.090;2023-12-22T10:34:56;9.40;99.90
22940;DHT22;11636;52.086;5.090;2023-12-22T10:37:24;9.40;99.90
22940;DHT22;11636;52.086;5.090;2023-12-22T10:39:58;9.50;99.90
22940;DHT22;11636;52.086;5.090;2023-12-22T10:42:32;9.50;99.90
22940;DHT22;11636;52.086;5.090;2023-12-22T10:45:07;9.60;99.90
22940;DHT22;11636;52.086;5.090;2023-12-22T10:47:34;9.60;99.90
22940;DHT22;11636;52.086;5.090;2023-12-22T10:50:07;9.60;99.90
22940;DHT22;11636;52.086;5.090;2023-12-22T10:52:34;9.70;99.90
22940;DHT22;11636;52.086;5.090;2023-12-22T10:55:08;9.70;99.90
22940;DHT22;11636;52.086;5.090;2023-12-22T10:57:35;9.70;99.90
22940;DHT22;11636;52.086;5.090;2023-12-22T11:00:06;9.80;99.90
22940;DHT22;11636;52.086;5.090;2023-12-22T11:02:42;9.80;99.90
22940;DHT22;11636;52.086;5.090;2023-12-22T11:05:11;9.80;99.90
22940;DHT22;11636;52.086;5.090;2023-12-22T11:07:48;9.80;99.90
22940;DHT22;11636;52.086;5.090;2023-12-22T11:10:20;9.70;99.90
22940;DHT22;11636;52.086;5.090;2023-12-22T11:12:57;9.60;99.90
22940;DHT22;11636;52.086;5.090;2023-12-22T11:15:24;9.60;99.90
22940;DHT22;11636;52.086;5.090;2023-12-22T11:17:55;9.60;99.90
22940;DHT22;11636;52.086;5.090;2023-12-22T11:20:32;9.70;99.90
22940;DHT22;11636;52.086;5.090;2023-12-22T11:23:00;9.80;99.90
22940;DHT22;11636;52.086;5.090;2023-12-22T11:25:35;9.90;99.90
22940;DHT22;11636;52.086;5.090;2023-12-22T11:28:04;9.90;99.90
22940;DHT22;11636;52.086;5.090;2023-12-22T11:30:39;9.90;99.90
22940;DHT22;11636;52.086;5.090;2023-12-22T11:33:06;9.90;99.90
22940;DHT22;11636;52.086;5.090;2023-12-22T11:35:40;9.90;99.90
22940;DHT22;11636;52.086;5.090;2023-12-22T11:38:10;9.80;99.90
22940;DHT22;11636;52.086;5.090;2023-12-22T11:40:39;9.80;99.90
22940;DHT22;11636;52.086;5.090;2023-12-22T11:43:12;9.70;99.90
22940;DHT22;11636;52.086;5.090;2023-12-22T11:45:41;9.70;99.90
22940;DHT22;11636;52.086;5.090;2023-12-22T11:48:16;9.70;99.90
22940;DHT22;11636;52.086;5.090;2023-12-22T11:50:43;9.70;99.90
22940;DHT22;11636;52.086;5.090;2023-12-22T11:53:24;9.80;99.90
22940;DHT22;11636;52.086;5.090;2023-12-22T11:56:06;9.90;99.90
22940;DHT22;11636;52.086;5.090;2023-12-22T12:01:13;10.00;99.90
22940;DHT22;11636;52.086;5.090;2023-12-22T12:04:01;10.10;99.90
22940;DHT22;11636;52.086;5.090;2023-12-22T12:06:36;10.10;99.90
22940;DHT22;11636;52.086;5.090;2023-12-22T12:09:05;10.20;99.90
22940;DHT22;11636;52.086;5.090;2023-12-22T12:14:23;10.20;99.90
22940;DHT22;11636;52.086;5.090;2023-12-22T12:17:05;10.20;99.90
22940;DHT22;11636;52.086;5.090;2023-12-22T12:19:43;10.20;99.90
22940;DHT22;11636;52.086;5.090;2023-12-22T12:22:14;10.20;99.90
22940;DHT22;11636;52.086;5.090;2023-12-22T12:24:47;10.10;99.90
22940;DHT22;11636;52.086;5.090;2023-12-22T12:27:18;10.20;99.90
22940;DHT22;11636;52.086;5.090;2023-12-22T12:29:52;10.10;99.90
22940;DHT22;11636;52.086;5.090;2023-12-22T12:32:23;10.20;99.90
22940;DHT22;11636;52.086;5.090;2023-12-22T12:34:50;10.20;99.90
22940;DHT22;11636;52.086;5.090;2023-12-22T12:37:26;10.20;99.90
22940;DHT22;11636;52.086;5.090;2023-12-22T12:39:57;10.20;99.90
22940;DHT22;11636;52.086;5.090;2023-12-22T12:42:35;10.20;99.90
22940;DHT22;11636;52.086;5.090;2023-12-22T12:45:04;10.30;99.90
22940;DHT22;11636;52.086;5.090;2023-12-22T12:47:38;10.30;99.90
22940;DHT22;11636;52.086;5.090;2023-12-22T12:50:05;10.40;99.90
22940;DHT22;11636;52.086;5.090;2023-12-22T12:52:39;10.40;99.90
22940;DHT22;11636;52.086;5.090;2023-12-22T12:55:06;10.40;99.90
22940;DHT22;11636;52.086;5.090;2023-12-22T12:57:33;10.40;99.90
22940;DHT22;11636;52.086;5.090;2023-12-22T13:00:06;10.50;99.90
22940;DHT22;11636;52.086;5.090;2023-12-22T13:02:35;10.50;99.90
22940;DHT22;11636;52.086;5.090;2023-12-22T13:05:19;10.50;99.90
22940;DHT22;11636;52.086;5.090;2023-12-22T13:07:46;10.50;99.90
22940;DHT22;11636;52.086;5.090;2023-12-22T13:10:23;10.60;99.90
22940;DHT22;11636;52.086;5.090;2023-12-22T13:12:51;10.60;99.90
22940;DHT22;11636;52.086;5.090;2023-12-22T13:15:27;10.60;99.90
22940;DHT22;11636;52.086;5.090;2023-12-22T13:17:54;10.60;99.90
22940;DHT22;11636;52.086;5.090;2023-12-22T13:20:28;10.50;99.90
22940;DHT22;11636;52.086;5.090;2023-12-22T13:22:55;10.50;99.90
22940;DHT22;11636;52.086;5.090;2023-12-22T13:25:22;10.60;99.90
22940;DHT22;11636;52.086;5.090;2023-12-22T13:27:56;10.50;99.90
22940;DHT22;11636;52.086;5.090;2023-12-22T13:30:34;10.50;99.90
22940;DHT22;11636;52.086;5.090;2023-12-22T13:33:08;10.40;99.90
22940;DHT22;11636;52.086;5.090;2023-12-22T13:35:37;10.40;99.90
22940;DHT22;11636;52.086;5.090;2023-12-22T13:38:09;10.40;99.90
22940;DHT22;11636;52.086;5.090;2023-12-22T13:40:46;10.50;99.90
22940;DHT22;11636;52.086;5.090;2023-12-22T13:43:14;10.40;99.90
22940;DHT22;11636;52.086;5.090;2023-12-22T13:45:49;10.50;99.90
22940;DHT22;11636;52.086;5.090;2023-12-22T13:48:24;10.60;99.90
22940;DHT22;11636;52.086;5.090;2023-12-22T13:50:59;10.60;99.90
22940;DHT22;11636;52.086;5.090;2023-12-22T13:53:33;10.60;99.90
22940;DHT22;11636;52.086;5.090;2023-12-22T13:56:08;10.60;99.90
22940;DHT22;11636;52.086;5.090;2023-12-22T13:58:44;10.70;99.90
22940;DHT22;11636;52.086;5.090;2023-12-22T14:01:18;10.60;99.90
22940;DHT22;11636;52.086;5.090;2023-12-22T14:03:45;10.60;99.90
22940;DHT22;11636;52.086;5.090;2023-12-22T14:06:18;10.60;99.90
22940;DHT22;11636;52.086;5.090;2023-12-22T14:08:45;10.60;99.90
22940;DHT22;11636;52.086;5.090;2023-12-22T14:11:12;10.70;99.90
22940;DHT22;11636;52.086;5.090;2023-12-22T14:13:46;10.70;99.90
22940;DHT22;11636;52.086;5.090;2023-12-22T14:16:13;10.70;99.90
22940;DHT22;11636;52.086;5.090;2023-12-22T14:18:48;10.70;99.90
22940;DHT22;11636;52.086;5.090;2023-12-22T14:21:15;10.70;99.90
22940;DHT22;11636;52.086;5.090;2023-12-22T14:23:49;10.70;99.90
22940;DHT22;11636;52.086;5.090;2023-12-22T14:26:16;10.70;99.90
22940;DHT22;11636;52.086;5.090;2023-12-22T14:28:43;10.70;99.90
22940;DHT22;11636;52.086;5.090;2023-12-22T14:31:20;10.60;99.90
22940;DHT22;11636;52.086;5.090;2023-12-22T14:33:47;10.60;99.90
22940;DHT22;11636;52.086;5.090;2023-12-22T14:36:21;10.60;99.90
22940;DHT22;11636;52.086;5.090;2023-12-22T14:38:48;10.60;99.90
22940;DHT22;11636;52.086;5.090;2023-12-22T14:41:21;10.60;99.90
22940;DHT22;11636;52.086;5.090;2023-12-22T14:43:48;10.60;99.90
22940;DHT22;11636;52.086;5.090;2023-12-22T14:46:21;10.50;99.90
22940;DHT22;11636;52.086;5.090;2023-12-22T14:48:48;10.30;99.90
22940;DHT22;11636;52.086;5.090;2023-12-22T14:51:21;10.10;99.90
22940;DHT22;11636;52.086;5.090;2023-12-22T14:53:55;10.10;99.90
22940;DHT22;11636;52.086;5.090;2023-12-22T14:56:22;10.10;99.90
22940;DHT22;11636;52.086;5.090;2023-12-22T14:58:55;10.00;99.90
22940;DHT22;11636;52.086;5.090;2023-12-22T15:01:22;10.10;99.90
22940;DHT22;11636;52.086;5.090;2023-12-22T15:03:55;10.10;99.90
22940;DHT22;11636;52.086;5.090;2023-12-22T15:06:22;10.10;99.90
22940;DHT22;11636;52.086;5.090;2023-12-22T15:08:55;10.10;99.90
22940;DHT22;11636;52.086;5.090;2023-12-22T15:11:22;10.20;99.90
22940;DHT22;11636;52.086;5.090;2023-12-22T15:13:56;10.20;99.90
22940;DHT22;11636;52.086;5.090;2023-12-22T15:16:23;10.10;99.90
22940;DHT22;11636;52.086;5.090;2023-12-22T15:18:57;10.10;99.90
22940;DHT22;11636;52.086;5.090;2023-12-22T15:21:30;10.10;99.90
22940;DHT22;11636;52.086;5.090;2023-12-22T15:23:57;10.20;99.90
22940;DHT22;11636;52.086;5.090;2023-12-22T15:26:30;10.20;99.90
22940;DHT22;11636;52.086;5.090;2023-12-22T15:28:57;10.30;99.90
22940;DHT22;11636;52.086;5.090;2023-12-22T15:31:24;10.30;99.90
22940;DHT22;11636;52.086;5.090;2023-12-22T15:34:02;10.30;99.90
22940;DHT22;11636;52.086;5.090;2023-12-22T15:36:29;10.30;99.90
22940;DHT22;11636;52.086;5.090;2023-12-22T15:39:03;10.40;99.90
22940;DHT22;11636;52.086;5.090;2023-12-22T15:41:37;10.40;99.90
22940;DHT22;11636;52.086;5.090;2023-12-22T15:44:04;10.40;99.90
22940;DHT22;11636;52.086;5.090;2023-12-22T15:46:37;10.50;99.90
22940;DHT22;11636;52.086;5.090;2023-12-22T15:49:04;10.50;99.90
22940;DHT22;11636;52.086;5.090;2023-12-22T15:51:31;10.50;99.90
22940;DHT22;11636;52.086;5.090;2023-12-22T15:54:04;10.60;99.90
22940;DHT22;11636;52.086;5.090;2023-12-22T15:56:31;10.50;99.90
22940;DHT22;11636;52.086;5.090;2023-12-22T15:59:05;10.50;99.90
22940;DHT22;11636;52.086;5.090;2023-12-22T16:01:32;10.50;99.90
22940;DHT22;11636;52.086;5.090;2023-12-22T16:04:06;10.60;99.90
22940;DHT22;11636;52.086;5.090;2023-12-22T16:06:33;10.60;99.90
22940;DHT22;11636;52.086;5.090;2023-12-22T16:09:06;10.60;99.90
22940;DHT22;11636;52.086;5.090;2023-12-22T16:11:33;10.60;99.90
22940;DHT22;11636;52.086;5.090;2023-12-22T16:14:06;10.60;99.90